Time;durP1;ratioP1;P1;durP2;ratioP2;P2;SDS_P1;SDS_P2;PMS_P1;PMS_P2;Temp;Humidity;BMP_temperature;BMP_pressure;BME280_temperature;BME280_humidity;BME280_pressure;Samples;Min_cycle;Max_cycle;Signal;HPM_P1;HPM_P2
2022/11/26 05:00:28;;;;;;;2.67;1.45;;;;;;;-0.83;100.00;100019.87;1776697;79;22953;-76
2022/11/26 05:02:54;;;;;;;18.60;9.60;;;;;;;-0.73;100.00;100039.08;1728853;82;21036;-77
2022/11/26 05:05:20;;;;;;;1.90;0.90;;;;;;;-0.51;100.00;100034.55;1691591;83;21078;-77
2022/11/26 05:07:47;;;;;;;1.22;0.60;;;;;;;-0.33;100.00;100039.42;1692904;82;20997;-77
2022/11/26 05:10:13;;;;;;;;;;;;;;;-0.19;100.00;100041.17;1719744;83;22043;-77
2022/11/26 05:12:40;;;;;;;3.47;1.40;;;;;;;-0.05;100.00;100037.56;1723578;83;20198;-77
2022/11/26 05:15:07;;;;;;;0.85;0.50;;;;;;;0.03;100.00;100043.28;1723139;82;21177;-77
2022/11/26 05:17:34;;;;;;;1.10;0.68;;;;;;;0.15;100.00;100037.67;1727093;83;21674;-77
2022/11/26 05:20:00;;;;;;;1.65;0.70;;;;;;;0.26;100.00;100046.49;1729197;83;21132;-77
2022/11/26 05:22:27;;;;;;;1.05;0.55;;;;;;;0.35;100.00;100047.50;1711381;83;21017;-77
2022/11/26 05:24:53;;;;;;;7.50;6.75;;;;;;;0.42;100.00;100050.20;1729740;82;21091;-77
2022/11/26 05:27:20;;;;;;;1.82;1.22;;;;;;;0.48;100.00;100052.91;1727597;83;21549;-77
2022/11/26 05:29:46;;;;;;;1.70;1.00;;;;;;;0.54;100.00;100055.80;1728021;81;21078;-77
2022/11/26 05:32:13;;;;;;;;;;;;;;;0.59;100.00;100058.72;1698337;84;21026;-77
2022/11/26 05:34:41;;;;;;;4.53;2.77;;;;;;;0.61;100.00;100057.98;1682588;85;20147;-77
2022/11/26 05:37:07;;;;;;;2.90;1.40;;;;;;;0.54;100.00;100056.63;1673912;85;22083;-77
2022/11/26 05:39:34;;;;;;;2.75;1.37;;;;;;;0.56;100.00;100060.46;1672234;84;21089;-77
2022/11/26 05:42:01;;;;;;;4.37;2.08;;;;;;;0.61;100.00;100064.69;1671904;86;21085;-78
2022/11/26 05:44:27;;;;;;;6.45;2.70;;;;;;;0.64;100.00;100065.66;1672061;84;21085;-77
2022/11/26 05:46:54;;;;;;;50.55;24.75;;;;;;;0.65;100.00;100064.61;1672364;85;21117;-77
2022/11/26 05:49:20;;;;;;;11.50;5.10;;;;;;;0.63;100.00;100072.03;1670693;84;22195;-77
2022/11/26 05:51:47;;;;;;;2.10;0.70;;;;;;;0.66;100.00;100076.48;1667288;86;21030;-77
2022/11/26 05:54:14;;;;;;;3.37;1.30;;;;;;;0.76;100.00;100078.78;1666788;84;21620;-77
2022/11/26 05:56:41;;;;;;;;;;;;;;;0.76;100.00;100082.29;1675327;85;21623;-77
2022/11/26 05:59:07;;;;;;;6.75;2.67;;;;;;;0.68;100.00;100081.63;1667121;85;20132;-77
2022/11/26 06:01:34;;;;;;;2.65;0.90;;;;;;;0.59;100.00;100083.66;1657530;86;21114;-78
2022/11/26 06:04:02;;;;;;;3.27;1.60;;;;;;;0.69;100.00;100084.63;1652531;86;21080;-78
2022/11/26 06:06:29;;;;;;;3.50;1.85;;;;;;;0.71;100.00;100082.59;1670826;85;21063;-78
2022/11/26 06:08:56;;;;;;;2.65;1.00;;;;;;;0.68;100.00;100087.81;1699172;83;21100;-78
2022/11/26 06:11:22;;;;;;;3.22;0.85;;;;;;;0.71;100.00;100086.61;1717260;83;21031;-78
2022/11/26 06:13:49;;;;;;;3.72;1.12;;;;;;;0.74;100.00;100091.05;1682695;84;21018;-79
2022/11/26 06:16:15;;;;;;;2.58;1.02;;;;;;;0.70;100.00;100093.81;1682419;84;21043;-78
2022/11/26 06:18:42;;;;;;;;;;;;;;;0.72;100.00;100089.58;1718681;83;21542;-79
2022/11/26 06:21:09;;;;;;;8.58;4.15;;;;;;;0.77;100.00;100100.03;1677867;85;20763;-79
2022/11/26 06:23:35;;;;;;;5.37;2.33;;;;;;;0.75;100.00;100096.70;1674776;85;21569;-79
2022/11/26 06:26:08;;;;;;;10.58;4.95;;;;;;;0.74;100.00;100106.30;1676937;84;21051;-78
2022/11/26 06:28:36;;;;;;;9.20;3.83;;;;;;;0.72;100.00;100105.14;1677437;85;21470;-79
2022/11/26 06:31:02;;;;;;;5.35;1.60;;;;;;;0.69;100.00;100104.72;1666256;85;21102;-79
2022/11/26 06:33:29;;;;;;;6.50;3.02;;;;;;;0.73;100.00;100104.13;1668645;85;21438;-79
2022/11/26 06:36:00;;;;;;;9.10;3.58;;;;;;;0.80;100.00;100116.22;1665815;85;21067;-79
2022/11/26 06:38:27;;;;;;;6.42;2.95;;;;;;;0.83;100.00;100119.32;1665679;85;21071;-79
2022/11/26 06:41:06;;;;;;;;;;;;;;;0.83;100.00;100117.98;1668802;85;21035;-79
2022/11/26 06:43:33;;;;;;;5.37;1.67;;;;;;;0.79;100.00;100122.08;1656716;86;20095;-79
2022/11/26 06:46:05;;;;;;;;;;;;;;;0.74;100.00;100122.37;1646685;85;21123;-79
2022/11/26 06:48:32;;;;;;;4.97;2.10;;;;;;;0.79;100.00;100127.45;1657251;86;20458;-79
2022/11/26 06:51:03;;;;;;;;;;;;;;;0.81;100.00;100127.26;1677321;85;21982;-79
2022/11/26 06:53:30;;;;;;;2.30;1.27;;;;;;;0.81;100.00;100126.75;1674007;85;20111;-79
2022/11/26 06:56:02;;;;;;;4.75;1.50;;;;;;;0.70;100.00;100131.84;1712910;82;21737;-78
2022/11/26 06:58:29;;;;;;;6.25;1.90;;;;;;;0.68;100.00;100129.34;1682087;85;21482;-79
2022/11/26 07:00:56;;;;;;;4.67;2.65;;;;;;;0.74;100.00;100127.73;1728862;83;21432;-79
2022/11/26 07:03:23;;;;;;;;;;;;;;;0.77;100.00;100137.55;1695546;84;21350;-77
2022/11/26 07:05:49;;;;;;;4.12;2.20;;;;;;;0.80;100.00;100137.66;1652820;85;20112;-79
2022/11/26 07:08:16;;;;;;;4.92;2.55;;;;;;;0.74;100.00;100139.80;1685706;84;20986;-78
2022/11/26 07:10:42;;;;;;;5.78;2.72;;;;;;;0.78;100.00;100142.41;1657606;85;21080;-78
2022/11/26 07:13:09;;;;;;;;;;;;;;;0.86;100.00;100148.91;1694675;84;21419;-79
2022/11/26 07:15:35;;;;;;;5.53;2.40;;;;;;;0.82;100.00;100155.69;1660296;85;20107;-77
2022/11/26 07:18:03;;;;;;;5.62;2.55;;;;;;;0.76;100.00;100151.13;1673854;85;21468;-77
2022/11/26 07:20:29;;;;;;;;;;;;;;;0.82;100.00;100157.03;1678380;85;21062;-77
2022/11/26 07:22:55;;;;;;;4.08;2.00;;;;;;;0.87;100.00;100157.27;1681227;85;20120;-77
2022/11/26 07:25:22;;;;;;;;;;;;;;;0.78;100.00;100161.95;1687042;85;21100;-77
2022/11/26 07:27:48;;;;;;;6.33;2.30;;;;;;;0.81;100.00;100156.23;1683948;85;20146;-77
2022/11/26 07:30:15;;;;;;;4.53;2.00;;;;;;;0.85;100.00;100150.76;1673288;85;21071;-77
2022/11/26 07:32:42;;;;;;;5.80;2.70;;;;;;;0.84;100.00;100151.81;1672774;85;21018;-77
2022/11/26 07:35:10;;;;;;;2.58;1.37;;;;;;;0.80;100.00;100149.72;1668404;85;21137;-77
2022/11/26 07:37:36;;;;;;;6.17;2.45;;;;;;;0.79;100.00;100152.91;1678134;84;21055;-76
2022/11/26 07:40:05;;;;;;;7.15;2.33;;;;;;;0.82;100.00;100151.67;1636014;85;21170;-77
2022/11/26 07:42:32;;;;;;;3.90;1.98;;;;;;;0.81;100.00;100150.04;1669239;85;21060;-77
2022/11/26 07:44:59;;;;;;;5.05;2.30;;;;;;;0.76;100.00;100156.49;1660418;85;21130;-77
2022/11/26 07:47:25;;;;;;;5.70;2.50;;;;;;;0.77;100.00;100152.28;1672245;86;21348;-76
2022/11/26 07:49:52;;;;;;;3.87;1.77;;;;;;;0.83;100.00;100160.03;1672642;84;21078;-76
2022/11/26 07:52:18;;;;;;;3.22;1.75;;;;;;;0.88;100.00;100157.09;1672141;86;21038;-77
2022/11/26 07:54:45;;;;;;;3.65;1.92;;;;;;;0.84;100.00;100158.51;1672299;84;21093;-76
2022/11/26 07:57:11;;;;;;;4.55;2.33;;;;;;;0.84;100.00;100163.03;1672105;86;21138;-77
2022/11/26 07:59:37;;;;;;;33.33;16.80;;;;;;;0.93;100.00;100174.73;1669417;85;21592;-75
2022/11/26 08:02:04;;;;;;;;;;;;;;;1.00;100.00;100170.22;1677346;85;21018;-77
2022/11/26 08:04:31;;;;;;;5.87;3.40;;;;;;;0.97;100.00;100172.47;1662667;85;20111;-77
2022/11/26 08:06:57;;;;;;;9.15;4.67;;;;;;;0.91;100.00;100175.45;1632449;88;21036;-76
2022/11/26 08:09:23;;;;;;;4.87;2.83;;;;;;;0.98;100.00;100174.14;1663239;85;21039;-77
2022/11/26 08:11:51;;;;;;;4.08;2.70;;;;;;;1.02;100.00;100178.08;1638429;86;21003;-76
2022/11/26 08:14:18;;;;;;;3.30;2.15;;;;;;;0.99;100.00;100171.78;1663011;85;21022;-76
2022/11/26 08:16:45;;;;;;;2.95;1.80;;;;;;;0.99;100.00;100171.78;1662951;86;20979;-76
2022/11/26 08:19:12;;;;;;;3.42;2.37;;;;;;;1.05;100.00;100174.16;1665678;85;21019;-76
2022/11/26 08:21:39;;;;;;;2.55;1.72;;;;;;;1.07;100.00;100178.29;1673432;85;21553;-76
2022/11/26 08:24:06;;;;;;;;;;;;;;;1.06;100.00;100179.34;1668161;86;20979;-76
2022/11/26 08:26:32;;;;;;;5.00;2.40;;;;;;;1.10;100.00;100180.56;1665897;86;20414;-76
2022/11/26 08:28:59;;;;;;;8.45;3.25;;;;;;;1.05;100.00;100177.67;1674468;85;21006;-76
2022/11/26 08:31:26;;;;;;;6.67;3.35;;;;;;;1.03;100.00;100174.34;1662998;85;21110;-76
2022/11/26 08:34:01;;;;;;;8.00;3.58;;;;;;;1.06;100.00;100174.48;1632576;88;21097;-76
2022/11/26 08:36:28;;;;;;;7.37;3.52;;;;;;;0.98;100.00;100178.99;1662036;85;21165;-76
2022/11/26 08:38:56;;;;;;;9.75;5.12;;;;;;;1.04;100.00;100181.38;1628465;88;21071;-76
2022/11/26 08:41:22;;;;;;;10.85;4.97;;;;;;;1.13;100.00;100188.23;1668090;84;21098;-76
2022/11/26 08:43:49;;;;;;;12.95;7.67;;;;;;;1.11;100.00;100186.25;1668115;86;21078;-76
2022/11/26 08:46:16;;;;;;;15.53;7.90;;;;;;;1.08;100.00;100187.16;1668152;84;21121;-76
2022/11/26 08:48:44;;;;;;;27.37;13.00;;;;;;;1.08;100.00;100190.68;1671548;85;21049;-76
2022/11/26 08:51:11;;;;;;;52.38;23.22;;;;;;;1.13;100.00;100184.73;1664121;85;21125;-76
2022/11/26 08:53:38;;;;;;;53.63;24.45;;;;;;;1.13;100.00;100190.09;1671539;85;21018;-75
2022/11/26 08:56:10;;;;;;;24.67;12.23;;;;;;;1.06;100.00;100187.38;1641084;87;21163;-75
2022/11/26 08:58:39;;;;;;;31.55;15.63;;;;;;;1.06;100.00;100187.38;1632363;87;21004;-76
2022/11/26 09:01:10;;;;;;;19.42;10.70;;;;;;;1.12;100.00;100190.59;1651087;86;21055;-75
2022/11/26 09:03:37;;;;;;;11.40;7.53;;;;;;;1.10;100.00;100191.30;1686225;84;21559;-75
2022/11/26 09:06:04;;;;;;;6.67;4.33;;;;;;;1.06;100.00;100192.75;1722817;82;21617;-76
2022/11/26 09:08:33;;;;;;;6.30;5.70;;;;;;;1.10;100.00;100187.27;1722462;83;20983;-75
2022/11/26 09:10:59;;;;;;;3.95;2.55;;;;;;;1.13;100.00;100190.92;1722456;82;21122;-75
2022/11/26 09:13:25;;;;;;;3.25;2.00;;;;;;;1.09;100.00;100195.53;1723006;83;20983;-75
2022/11/26 09:15:52;;;;;;;4.80;2.05;;;;;;;1.08;100.00;100200.06;1721354;82;21097;-75
2022/11/26 09:18:18;;;;;;;3.40;1.52;;;;;;;1.05;100.00;100202.31;1721144;83;21038;-75
2022/11/26 09:20:45;;;;;;;2.85;1.20;;;;;;;1.06;100.00;100206.66;1721106;82;21118;-76
2022/11/26 09:23:11;;;;;;;2.55;1.50;;;;;;;1.15;100.00;100205.45;1721697;83;21070;-75
2022/11/26 09:25:38;;;;;;;3.62;1.75;;;;;;;1.17;100.00;100205.55;1721472;82;21078;-75
2022/11/26 09:28:05;;;;;;;2.58;1.70;;;;;;;1.17;100.00;100210.13;1721234;83;21062;-76
2022/11/26 09:30:33;;;;;;;2.83;1.57;;;;;;;1.12;100.00;100206.69;1721187;82;21113;-75
2022/11/26 09:32:59;;;;;;;2.83;1.72;;;;;;;1.17;100.00;100208.23;1721586;83;21505;-76
2022/11/26 09:35:26;;;;;;;4.00;2.00;;;;;;;1.21;100.00;100210.84;1721152;82;21102;-75
2022/11/26 09:37:54;;;;;;;3.20;2.35;;;;;;;1.15;100.00;100217.01;1721584;83;21045;-75
2022/11/26 09:40:21;;;;;;;4.95;2.47;;;;;;;1.13;100.00;100213.72;1721263;82;21068;-75
2022/11/26 09:43:16;;;;;;;4.10;2.02;;;;;;;1.21;100.00;100217.55;1721444;83;21066;-75
2022/11/26 09:45:50;;;;;;;5.33;3.30;;;;;;;1.23;100.00;100217.36;1720600;82;21739;-74
2022/11/26 09:48:20;;;;;;;4.10;2.35;;;;;;;1.16;100.00;100223.20;1663239;85;21026;-75
2022/11/26 09:50:47;;;;;;;9.25;5.90;;;;;;;1.19;100.00;100222.80;1720887;82;21109;-77
2022/11/26 09:53:20;;;;;;;19.70;13.88;;;;;;;1.27;100.00;100232.86;1721738;83;21030;-77
2022/11/26 09:55:49;;;;;;;9.88;7.30;;;;;;;1.24;100.00;100223.84;1720468;82;21118;-77
2022/11/26 22:39:22;;;;;;;11.75;8.88;;;;;;;-0.92;100.00;100600.97;1776141;79;22893;-67
2022/11/26 22:41:49;;;;;;;6.75;5.03;;;;;;;-0.83;100.00;100607.95;1724162;83;21090;-68
2022/11/26 22:44:15;;;;;;;6.87;5.67;;;;;;;-0.60;100.00;100613.28;1724465;82;21074;-68
2022/11/26 22:46:42;;;;;;;5.20;3.05;;;;;;;-0.41;100.00;100609.30;1724071;83;22361;-68
2022/11/26 22:49:13;;;;;;;5.50;3.55;;;;;;;-0.26;100.00;100611.02;1724371;82;21035;-68
2022/11/26 22:51:41;;;;;;;3.98;2.67;;;;;;;-0.12;100.00;100611.56;1724247;83;21065;-68
2022/11/26 22:54:09;;;;;;;;;;;;;;;-0.01;100.00;100610.30;1726642;82;22266;-68
2022/11/26 22:56:37;;;;;;;4.67;3.08;;;;;;;0.08;100.00;100615.88;1723717;83;20187;-68
2022/11/26 22:59:06;;;;;;;3.37;2.10;;;;;;;0.14;100.00;100614.33;1723507;82;21105;-68
2022/11/26 23:01:34;;;;;;;3.72;2.45;;;;;;;0.17;100.00;100620.66;1724261;83;21111;-68
2022/11/26 23:04:02;;;;;;;4.50;2.80;;;;;;;0.20;100.00;100605.56;1725497;82;21041;-69
2022/11/26 23:06:29;;;;;;;6.75;3.65;;;;;;;0.29;100.00;100615.98;1725354;83;20975;-68
2022/11/26 23:08:56;;;;;;;3.55;2.85;;;;;;;0.36;100.00;100616.08;1696333;84;21039;-68
2022/11/26 23:11:25;;;;;;;4.80;2.90;;;;;;;0.35;100.00;100622.47;1696220;83;21070;-68
2022/11/26 23:13:52;;;;;;;4.00;2.70;;;;;;;0.35;100.00;100615.27;1696311;84;21533;-68
2022/11/26 23:16:20;;;;;;;5.40;2.98;;;;;;;0.40;100.00;100614.19;1711080;83;21066;-68
2022/11/26 23:18:47;;;;;;;5.00;3.08;;;;;;;0.40;100.00;100622.23;1725370;83;21616;-68
2022/11/26 23:21:18;;;;;;;3.58;2.50;;;;;;;0.40;100.00;100610.68;1725688;82;21079;-68
2022/11/26 23:23:45;;;;;;;3.65;2.35;;;;;;;0.45;100.00;100611.80;1724946;83;21068;-68
2022/11/26 23:26:18;;;;;;;9.55;3.92;;;;;;;0.45;100.00;100614.98;1724963;83;21062;-68
2022/11/26 23:28:45;;;;;;;4.15;2.62;;;;;;;0.43;100.00;100614.33;1725594;83;21034;-67
2022/11/26 23:31:16;;;;;;;3.35;2.20;;;;;;;0.44;100.00;100611.98;1724550;82;21137;-68
2022/11/26 23:33:42;;;;;;;5.00;2.47;;;;;;;0.53;100.00;100614.06;1723812;83;21636;-68
2022/11/26 23:36:09;;;;;;;3.65;2.10;;;;;;;0.48;100.00;100616.79;1723742;82;21127;-68
2022/11/26 23:38:35;;;;;;;5.75;3.08;;;;;;;0.48;100.00;100610.09;1716592;83;21074;-68
2022/11/26 23:41:03;;;;;;;4.37;2.47;;;;;;;0.50;100.00;100612.56;1711222;82;21160;-69
2022/11/26 23:43:30;;;;;;;4.65;3.08;;;;;;;0.46;100.00;100617.46;1711006;84;21052;-68
2022/11/26 23:46:21;;;;;;;3.92;2.55;;;;;;;0.43;100.00;100624.53;1709734;84;21094;-68
2022/11/26 23:48:48;;;;;;;2.87;2.22;;;;;;;0.48;100.00;100631.52;1710421;84;21031;-67
2022/11/26 23:51:19;;;;;;;7.45;3.37;;;;;;;0.51;100.00;100630.31;1710676;82;21106;-68
2022/11/26 23:53:46;;;;;;;3.77;2.77;;;;;;;0.54;100.00;100641.16;1711326;83;21015;-68
2022/11/26 23:56:21;;;;;;;5.15;2.45;;;;;;;0.50;100.00;100642.03;1718582;82;21078;-68
2022/11/26 23:58:52;;;;;;;3.15;2.15;;;;;;;0.49;100.00;100644.41;1718236;83;21082;-67
